createdAt,value
2018-05-24T13:54:42.891Z,24.57
2018-05-24T13:57:10.494Z,24.74
2018-05-24T13:59:38.143Z,24.91
2018-05-24T14:02:05.747Z,24.89
2018-05-24T14:04:33.393Z,24.99
2018-05-24T14:07:01.015Z,24.75
2018-05-24T14:09:28.668Z,25.08
2018-05-24T14:11:56.279Z,24.98
2018-05-24T14:14:23.940Z,24.72
2018-05-24T14:16:51.557Z,24.86
2018-05-24T14:19:19.213Z,24.42
2018-05-24T14:21:46.819Z,24.16
2018-05-24T14:24:14.462Z,24.09
2018-05-24T14:26:42.070Z,24.64
2018-05-24T14:29:09.731Z,24.79
2018-05-24T14:31:37.362Z,25.21
2018-05-24T14:34:05.012Z,25.03
2018-05-24T14:36:32.636Z,24.72
2018-05-24T14:39:00.284Z,24.58
2018-05-24T14:41:27.885Z,25.06
2018-05-24T14:43:55.531Z,25.19
2018-05-24T14:46:23.138Z,25.31
2018-05-24T14:48:50.782Z,25.55
2018-05-24T14:51:18.392Z,25.58
2018-05-24T14:53:46.038Z,25.36
2018-05-24T14:56:13.665Z,25.47
2018-05-24T14:58:41.319Z,25.53
2018-05-24T15:01:08.934Z,25.01
2018-05-24T15:03:36.583Z,25.29
2018-05-24T15:06:04.368Z,25.19
2018-05-24T15:08:32.072Z,24.83
2018-05-24T15:10:59.689Z,25.01
2018-05-24T15:13:39.103Z,25.05
2018-05-24T15:16:06.713Z,24.68
2018-05-24T15:18:34.414Z,24.87
2018-05-24T15:21:02.653Z,24.99
2018-05-24T15:23:30.307Z,24.79
2018-05-24T15:25:57.915Z,25.01
2018-05-24T15:28:25.567Z,24.83
2018-05-24T15:30:53.187Z,24.75
2018-05-24T15:33:20.860Z,24.72
2018-05-24T15:35:48.466Z,25.20
2018-05-24T15:38:16.141Z,25.70
2018-05-24T15:40:43.814Z,25.56
2018-05-24T15:43:11.474Z,25.31
2018-05-24T15:45:39.079Z,25.43
2018-05-24T15:48:06.867Z,25.35
2018-05-24T15:50:34.519Z,25.30
2018-05-24T15:53:02.129Z,25.29
2018-05-24T15:55:29.779Z,25.85
2018-05-24T15:57:57.383Z,26.52
2018-05-24T16:00:25.063Z,26.33
2018-05-24T16:02:52.672Z,26.32
2018-05-24T16:05:20.315Z,26.79
2018-05-24T16:07:47.919Z,26.08
2018-05-24T16:10:15.574Z,25.42
2018-05-24T16:12:43.184Z,26.38
2018-05-24T16:15:10.826Z,26.50
2018-05-24T16:17:38.426Z,26.63
2018-05-24T16:20:06.073Z,25.86
2018-05-24T16:22:33.682Z,26.83
2018-05-24T16:25:01.328Z,25.88
2018-05-24T16:27:28.934Z,26.05
2018-05-24T16:29:56.638Z,26.51
2018-05-24T16:32:24.246Z,25.90
2018-05-24T16:34:51.940Z,25.64
2018-05-24T16:37:19.578Z,26.09
2018-05-24T16:39:47.230Z,26.30
2018-05-24T16:42:14.834Z,25.58
2018-05-24T16:44:42.485Z,25.49
2018-05-24T16:47:10.091Z,25.57
2018-05-24T16:49:37.743Z,25.69
2018-05-24T16:52:05.348Z,25.52
2018-05-24T16:54:33.060Z,25.26
2018-05-24T16:57:00.663Z,25.64
2018-05-24T16:59:28.310Z,25.40
2018-05-24T17:01:55.914Z,25.15
2018-05-24T17:04:23.564Z,25.15
2018-05-24T17:06:51.167Z,25.18
2018-05-24T17:09:18.815Z,24.85
2018-05-24T17:11:46.486Z,24.75
2018-05-24T17:14:14.159Z,24.81
2018-05-24T17:16:41.763Z,24.67
2018-05-24T17:19:09.429Z,24.81
2018-05-24T17:21:37.038Z,24.74
2018-05-24T17:24:04.973Z,24.90
2018-05-24T17:26:32.579Z,24.67
2018-05-24T17:29:00.227Z,24.57
2018-05-24T17:31:27.838Z,24.90
2018-05-24T17:33:55.482Z,24.71
2018-05-24T17:36:23.091Z,24.67
2018-05-24T17:38:50.740Z,24.99
2018-05-24T17:41:18.468Z,24.55
2018-05-24T17:43:46.131Z,24.69
2018-05-24T17:46:13.734Z,24.59
2018-05-24T17:48:41.390Z,24.63
2018-05-24T17:51:09.037Z,24.58
2018-05-24T17:53:36.643Z,24.63
2018-05-24T17:56:04.324Z,24.62
2018-05-24T17:58:31.932Z,24.26
2018-05-24T18:00:59.578Z,24.35
2018-05-24T18:03:27.184Z,24.39
2018-05-24T18:05:54.827Z,24.41
2018-05-24T18:08:22.427Z,24.05
2018-05-24T18:10:50.066Z,24.16
2018-05-24T18:13:17.671Z,24.42
2018-05-24T18:15:45.321Z,24.17
2018-05-24T18:18:13.132Z,24.04
2018-05-24T18:20:40.789Z,24.03
2018-05-24T18:23:08.403Z,23.92
2018-05-24T18:25:36.050Z,24.01
2018-05-24T18:28:03.668Z,24.31
2018-05-24T18:30:31.317Z,24.29
2018-05-24T18:32:58.931Z,24.69
2018-05-24T18:35:26.579Z,24.18
2018-05-24T18:37:54.174Z,24.50
2018-05-24T18:42:55.719Z,24.90
2018-05-24T18:45:23.335Z,24.90
2018-05-24T18:47:50.937Z,24.93
2018-05-24T18:50:18.587Z,24.88
2018-05-24T18:52:46.187Z,24.90
2018-05-24T18:55:13.835Z,24.93
2018-05-24T18:57:41.445Z,25.00
2018-05-24T19:00:09.131Z,25.02
2018-05-24T19:02:36.739Z,25.10
2018-05-24T19:05:04.391Z,25.12
2018-05-24T19:07:32.000Z,25.08
2018-05-24T19:09:59.648Z,25.15
2018-05-24T19:12:27.250Z,25.18
2018-05-24T19:14:54.897Z,25.16
2018-05-24T19:17:22.508Z,25.11
2018-05-24T19:19:50.183Z,25.19
2018-05-24T19:22:17.827Z,25.14
2018-05-24T19:24:45.486Z,25.07
2018-05-24T19:27:13.092Z,25.06
2018-05-24T19:29:40.738Z,25.11
2018-05-24T19:32:08.362Z,25.15
2018-05-24T19:34:36.012Z,25.15
2018-05-24T19:37:03.615Z,25.11
2018-05-24T19:39:31.260Z,25.09
2018-05-24T19:41:58.866Z,25.07
2018-05-24T19:44:26.511Z,25.03
2018-05-24T19:46:54.131Z,24.84
2018-05-24T19:49:21.774Z,24.55
2018-05-24T19:51:49.382Z,24.41
2018-05-24T19:54:17.026Z,23.96
2018-05-24T19:56:44.638Z,23.70
2018-05-24T19:59:12.281Z,23.65
2018-05-24T20:01:39.883Z,23.69
2018-05-24T20:04:07.490Z,23.71
2018-05-24T20:06:35.671Z,23.70
2018-05-24T20:09:06.392Z,23.62
2018-05-24T20:11:34.033Z,23.76
2018-05-24T20:14:01.638Z,23.81
2018-05-24T20:16:29.287Z,23.84
2018-05-24T20:18:56.896Z,23.81
2018-05-24T20:21:24.547Z,23.85
2018-05-24T20:23:52.150Z,23.90
2018-05-24T20:26:19.795Z,23.86
2018-05-24T20:28:47.571Z,23.81
2018-05-24T20:31:15.286Z,23.79
2018-05-24T20:33:42.887Z,23.79
2018-05-24T20:36:10.604Z,23.72
2018-05-24T20:38:38.219Z,23.75
2018-05-24T20:41:06.046Z,23.76
2018-05-24T20:43:33.694Z,23.65
2018-05-24T20:46:01.406Z,23.41
2018-05-24T20:48:29.050Z,23.50
2018-05-24T20:50:56.697Z,23.64
2018-05-24T20:53:24.302Z,23.75
2018-05-24T20:55:51.947Z,23.79
2018-05-24T20:58:19.550Z,23.82
2018-05-24T21:00:47.197Z,23.79
2018-05-24T21:03:14.803Z,23.68
2018-05-24T21:05:42.456Z,23.70
2018-05-24T21:08:10.086Z,23.74
2018-05-24T21:10:37.739Z,23.73
2018-05-24T21:13:05.382Z,23.72
2018-05-24T21:15:33.030Z,23.77
2018-05-24T21:18:00.658Z,23.80
2018-05-24T21:20:28.314Z,23.84
2018-05-24T21:22:55.918Z,23.77
2018-05-24T21:25:23.568Z,23.70
2018-05-24T21:27:51.242Z,23.56
2018-05-24T21:30:18.884Z,23.59
2018-05-24T21:32:46.485Z,23.56
2018-05-24T21:35:14.131Z,23.56
2018-05-24T21:37:41.854Z,23.40
2018-05-24T21:40:09.498Z,23.47
2018-05-24T21:42:37.111Z,23.44
2018-05-24T21:45:04.758Z,23.35
2018-05-24T21:47:32.404Z,23.42
2018-05-24T21:50:00.050Z,23.29
2018-05-24T21:52:27.656Z,23.27
2018-05-24T21:54:55.298Z,23.27
2018-05-24T21:57:22.898Z,23.26
2018-05-24T21:59:50.550Z,23.24
2018-05-24T22:02:18.165Z,23.19
2018-05-24T22:04:45.813Z,23.20
2018-05-24T22:07:13.424Z,23.19
2018-05-24T22:09:41.030Z,23.19
2018-05-24T22:12:08.674Z,23.18
2018-05-24T22:14:36.274Z,23.13
2018-05-24T22:17:04.006Z,23.14
2018-05-24T22:19:31.603Z,23.02
2018-05-24T22:21:59.296Z,23.01
2018-05-24T22:24:26.898Z,23.05
2018-05-24T22:26:54.538Z,23.07
2018-05-24T22:29:22.161Z,23.03
2018-05-24T22:31:49.808Z,22.80
2018-05-24T22:34:17.416Z,22.76
2018-05-24T22:36:45.087Z,22.70
2018-05-24T22:39:12.689Z,22.74
2018-05-24T22:41:40.335Z,22.70
2018-05-24T22:44:07.946Z,22.65
2018-05-24T22:46:35.587Z,22.68
2018-05-24T22:49:03.201Z,22.72
2018-05-24T22:51:30.848Z,22.67
2018-05-24T22:53:58.455Z,22.68
2018-05-24T22:56:26.103Z,22.69
2018-05-24T22:58:53.715Z,22.62
2018-05-24T23:01:21.367Z,22.66
2018-05-24T23:03:48.976Z,22.62
2018-05-24T23:06:16.624Z,22.64
2018-05-24T23:08:44.227Z,22.51
2018-05-24T23:11:11.869Z,22.46
2018-05-24T23:13:39.483Z,22.28
2018-05-24T23:16:07.130Z,22.24
2018-05-24T23:18:34.735Z,22.22
2018-05-24T23:21:02.533Z,22.37
2018-05-24T23:23:30.147Z,22.34
2018-05-24T23:25:57.846Z,22.37
2018-05-24T23:28:25.430Z,22.25
2018-05-24T23:30:53.087Z,22.19
2018-05-24T23:33:20.694Z,22.19
2018-05-24T23:35:48.507Z,22.16
2018-05-24T23:38:16.134Z,22.10
2018-05-24T23:40:43.786Z,22.15
2018-05-24T23:43:11.387Z,22.14
2018-05-24T23:45:39.035Z,22.10
2018-05-24T23:48:06.676Z,22.10
2018-05-24T23:50:34.323Z,22.02
2018-05-24T23:53:01.934Z,22.03
2018-05-24T23:55:29.578Z,21.97
2018-05-24T23:57:57.183Z,22.02
